Time;durP1;ratioP1;P1;durP2;ratioP2;P2;SDS_P1;SDS_P2;PMS_P1;PMS_P2;Temp;Humidity;BMP_temperature;BMP_pressure;BME280_temperature;BME280_humidity;BME280_pressure;Samples;Min_cycle;Max_cycle;Signal;HPM_P1;HPM_P2
2023/05/14 00:02:52;;;;;;;;;;;20.40;55.90;;;;;;10285696;28;762;-69
2023/05/14 00:07:47;;;;;;;;;;;20.40;55.90;;;;;;10284545;28;1914;-68
2023/05/14 00:12:43;;;;;;;;;;;20.40;55.90;;;;;;10285581;28;948;-68
2023/05/14 00:17:38;;;;;;;;;;;20.40;55.90;;;;;;10284109;28;1431;-68
2023/05/14 00:22:33;;;;;;;;;;;20.40;55.90;;;;;;10284062;28;837;-68
2023/05/14 00:27:29;;;;;;;;;;;20.40;55.90;;;;;;10284677;28;1906;-68
2023/05/14 00:32:24;;;;;;;;;;;20.40;56.00;;;;;;10285035;28;945;-68
2023/05/14 00:37:19;;;;;;;;;;;20.40;56.00;;;;;;10285026;28;821;-68
2023/05/14 00:42:15;;;;;;;;;;;20.40;55.90;;;;;;10284919;28;868;-68
2023/05/14 00:47:10;;;;;;;;;;;20.40;55.90;;;;;;10284903;28;1963;-68
2023/05/14 00:52:05;;;;;;;;;;;20.40;55.90;;;;;;10284038;28;849;-68
2023/05/14 00:57:01;;;;;;;;;;;20.40;55.90;;;;;;10284632;28;845;-68
2023/05/14 01:01:56;;;;;;;;;;;20.40;55.80;;;;;;10283916;28;896;-68
2023/05/14 01:06:52;;;;;;;;;;;20.30;55.80;;;;;;10287853;28;1981;-68
2023/05/14 01:11:47;;;;;;;;;;;20.30;55.90;;;;;;10291480;28;817;-68
2023/05/14 01:16:42;;;;;;;;;;;20.30;55.80;;;;;;10291548;28;833;-68
2023/05/14 01:21:39;;;;;;;;;;;20.30;55.90;;;;;;10291695;28;934;-68
2023/05/14 01:26:35;;;;;;;;;;;20.30;55.90;;;;;;10290817;28;1906;-68
2023/05/14 01:31:31;;;;;;;;;;;20.30;55.90;;;;;;10291125;28;910;-68
2023/05/14 01:36:26;;;;;;;;;;;20.30;55.90;;;;;;10290398;28;931;-68
2023/05/14 01:41:21;;;;;;;;;;;20.30;55.90;;;;;;10290929;28;942;-68
2023/05/14 01:46:17;;;;;;;;;;;20.30;55.80;;;;;;10289690;28;2225;-68
2023/05/14 01:51:13;;;;;;;;;;;20.30;55.80;;;;;;10290531;28;838;-68
2023/05/14 01:56:09;;;;;;;;;;;20.30;55.80;;;;;;10290470;28;840;-68
2023/05/14 02:01:04;;;;;;;;;;;20.30;55.80;;;;;;10289584;28;856;-68
2023/05/14 02:05:59;;;;;;;;;;;20.30;55.80;;;;;;10289533;28;1979;-68
2023/05/14 02:10:55;;;;;;;;;;;20.30;55.90;;;;;;10289819;28;781;-68
2023/05/14 02:15:50;;;;;;;;;;;20.20;55.90;;;;;;10288008;28;919;-68
2023/05/14 02:20:45;;;;;;;;;;;20.20;55.80;;;;;;10288717;28;910;-68
2023/05/14 02:25:41;;;;;;;;;;;20.20;55.80;;;;;;10288685;28;767;-68
2023/05/14 02:30:36;;;;;;;;;;;20.20;55.70;;;;;;10288430;28;1902;-68
2023/05/14 02:35:32;;;;;;;;;;;20.20;55.70;;;;;;10289005;28;829;-68
2023/05/14 02:40:27;;;;;;;;;;;20.20;55.70;;;;;;10288169;28;895;-68
2023/05/14 02:45:23;;;;;;;;;;;20.20;55.80;;;;;;10288154;28;813;-68
2023/05/14 02:50:18;;;;;;;;;;;20.20;55.80;;;;;;10288173;28;1973;-68
2023/05/14 02:55:13;;;;;;;;;;;20.20;55.90;;;;;;10287483;28;801;-68
2023/05/14 03:00:09;;;;;;;;;;;20.20;55.80;;;;;;10286680;28;1022;-68
2023/05/14 03:05:04;;;;;;;;;;;20.20;55.80;;;;;;10287023;28;1097;-68
2023/05/14 03:10:00;;;;;;;;;;;20.20;55.70;;;;;;10287599;28;1980;-68
2023/05/14 03:14:55;;;;;;;;;;;20.10;55.80;;;;;;10286731;28;953;-68
2023/05/14 03:19:50;;;;;;;;;;;20.10;55.70;;;;;;10286547;28;928;-69
2023/05/14 03:24:46;;;;;;;;;;;20.10;55.70;;;;;;10286979;28;777;-68
2023/05/14 03:29:41;;;;;;;;;;;20.10;55.70;;;;;;10285910;28;1957;-68
2023/05/14 03:34:36;;;;;;;;;;;20.10;55.70;;;;;;10286620;28;877;-68
2023/05/14 03:39:32;;;;;;;;;;;20.10;55.70;;;;;;10285763;28;862;-68
2023/05/14 03:44:27;;;;;;;;;;;20.10;55.70;;;;;;10285656;28;825;-68
2023/05/14 03:49:23;;;;;;;;;;;20.10;55.60;;;;;;10285391;28;1910;-68
2023/05/14 03:54:18;;;;;;;;;;;20.10;55.60;;;;;;10285347;28;817;-68
2023/05/14 03:59:13;;;;;;;;;;;20.10;55.60;;;;;;10285319;28;905;-68
2023/05/14 04:04:09;;;;;;;;;;;20.10;55.60;;;;;;10285615;28;814;-68
2023/05/14 04:09:04;;;;;;;;;;;20.10;55.50;;;;;;10284756;28;1910;-68
2023/05/14 04:14:00;;;;;;;;;;;20.10;55.40;;;;;;10284926;28;844;-68
2023/05/14 04:18:55;;;;;;;;;;;20.10;55.50;;;;;;10284162;28;968;-68
2023/05/14 04:23:50;;;;;;;;;;;20.10;55.40;;;;;;10284723;28;761;-68
2023/05/14 04:28:46;;;;;;;;;;;20.10;55.40;;;;;;10284526;28;1902;-68
2023/05/14 04:33:41;;;;;;;;;;;20.10;55.30;;;;;;10284460;28;850;-66
2023/05/14 04:38:36;;;;;;;;;;;20.10;55.40;;;;;;10285154;28;978;-66
2023/05/14 04:43:32;;;;;;;;;;;20.10;55.30;;;;;;10292516;28;955;-68
2023/05/14 04:48:27;;;;;;;;;;;20.10;55.20;;;;;;10292356;28;1959;-68
2023/05/14 04:53:23;;;;;;;;;;;20.20;55.10;;;;;;10292225;28;838;-68
2023/05/14 04:58:18;;;;;;;;;;;20.20;55.10;;;;;;10292297;28;868;-68
2023/05/14 05:03:13;;;;;;;;;;;20.20;55.00;;;;;;10292461;28;833;-68
2023/05/14 05:08:10;;;;;;;;;;;20.20;55.10;;;;;;10292065;28;1914;-69
2023/05/14 05:13:05;;;;;;;;;;;20.20;55.10;;;;;;10291522;28;932;-68
2023/05/14 05:18:00;;;;;;;;;;;20.20;55.00;;;;;;10291290;28;856;-68
2023/05/14 05:22:56;;;;;;;;;;;20.20;55.10;;;;;;10292297;28;844;-68
2023/05/14 05:27:51;;;;;;;;;;;20.30;55.00;;;;;;10291418;28;1918;-68
2023/05/14 05:32:47;;;;;;;;;;;20.30;55.00;;;;;;10290929;28;806;-67
2023/05/14 05:37:44;;;;;;;;;;;20.30;55.00;;;;;;10290528;28;780;-67
2023/05/14 05:42:39;;;;;;;;;;;20.30;55.00;;;;;;10290895;28;841;-68
2023/05/14 05:47:34;;;;;;;;;;;20.30;55.00;;;;;;10290952;28;1918;-68
2023/05/14 05:52:30;;;;;;;;;;;20.30;55.10;;;;;;10289092;28;855;-68
2023/05/14 05:57:26;;;;;;;;;;;20.30;55.10;;;;;;10289757;28;753;-68
2023/05/14 06:02:21;;;;;;;;;;;20.30;55.20;;;;;;10289503;28;858;-68
2023/05/14 06:07:17;;;;;;;;;;;20.30;55.10;;;;;;10289224;28;1988;-68
2023/05/14 06:12:12;;;;;;;;;;;20.30;55.20;;;;;;10288607;28;800;-68
2023/05/14 06:17:07;;;;;;;;;;;20.30;55.10;;;;;;10289712;28;891;-68
2023/05/14 06:22:03;;;;;;;;;;;20.30;55.10;;;;;;10289175;28;852;-68
2023/05/14 06:26:58;;;;;;;;;;;20.30;55.10;;;;;;10288655;28;1910;-68
2023/05/14 06:31:53;;;;;;;;;;;20.30;55.10;;;;;;10288505;28;809;-68
2023/05/14 06:36:49;;;;;;;;;;;20.30;55.10;;;;;;10288871;28;866;-68
2023/05/14 06:41:44;;;;;;;;;;;20.30;55.10;;;;;;10288063;28;964;-68
2023/05/14 06:46:40;;;;;;;;;;;20.30;55.00;;;;;;10287841;28;1914;-68
2023/05/14 06:51:35;;;;;;;;;;;20.30;55.00;;;;;;10288227;28;820;-68
2023/05/14 06:56:30;;;;;;;;;;;20.30;55.10;;;;;;10288104;28;895;-67
2023/05/14 07:01:26;;;;;;;;;;;20.30;55.20;;;;;;10287325;28;987;-67
2023/05/14 07:06:21;;;;;;;;;;;20.30;55.30;;;;;;10287058;28;1991;-68
2023/05/14 07:11:16;;;;;;;;;;;20.40;55.20;;;;;;10287231;28;964;-68
2023/05/14 07:16:19;;;;;;;;;;;20.30;55.30;;;;;;10286808;28;806;-67
2023/05/14 07:21:15;;;;;;;;;;;20.30;55.40;;;;;;10286541;28;873;-67
2023/05/14 07:26:10;;;;;;;;;;;20.30;55.40;;;;;;10286856;28;1977;-68
2023/05/14 07:31:07;;;;;;;;;;;20.30;55.30;;;;;;10286460;28;849;-68
2023/05/14 07:36:02;;;;;;;;;;;20.30;55.20;;;;;;10286531;28;910;-67
2023/05/14 07:40:58;;;;;;;;;;;20.30;55.20;;;;;;10286410;28;876;-68
2023/05/14 07:45:54;;;;;;;;;;;20.30;55.20;;;;;;10286232;28;869;-68
2023/05/14 07:50:50;;;;;;;;;;;20.30;55.30;;;;;;10286030;28;1898;-68
2023/05/14 07:55:48;;;;;;;;;;;20.30;55.30;;;;;;10285345;28;795;-66
2023/05/14 08:00:43;;;;;;;;;;;20.30;55.30;;;;;;10286100;28;774;-68
2023/05/14 08:05:39;;;;;;;;;;;20.30;55.20;;;;;;10285042;28;1181;-67
2023/05/14 08:10:34;;;;;;;;;;;20.40;55.60;;;;;;10284958;28;1910;-67
2023/05/14 08:15:30;;;;;;;;;;;20.40;56.20;;;;;;10284969;28;863;-67
2023/05/14 08:20:25;;;;;;;;;;;20.40;56.60;;;;;;10284726;28;865;-67
2023/05/14 08:25:21;;;;;;;;;;;20.40;56.70;;;;;;10285252;28;820;-66
2023/05/14 08:30:16;;;;;;;;;;;20.40;57.20;;;;;;10284629;28;1972;-67
2023/05/14 08:35:12;;;;;;;;;;;20.60;56.90;;;;;;10285030;28;832;-71
2023/05/14 08:40:07;;;;;;;;;;;20.60;57.10;;;;;;10284383;28;1691;-72
2023/05/14 08:45:03;;;;;;;;;;;20.40;57.10;;;;;;10283717;28;1058;-74
2023/05/14 08:49:58;;;;;;;;;;;20.40;57.10;;;;;;10283597;28;1898;-69
2023/05/14 08:54:53;;;;;;;;;;;20.30;57.10;;;;;;10284998;28;857;-68
2023/05/14 08:59:49;;;;;;;;;;;20.30;57.00;;;;;;10283741;28;758;-68
2023/05/14 09:04:44;;;;;;;;;;;20.30;56.90;;;;;;10283949;28;1281;-69
2023/05/14 09:09:40;;;;;;;;;;;20.30;57.00;;;;;;10283551;28;1879;-68
2023/05/14 09:14:35;;;;;;;;;;;20.30;56.90;;;;;;10283397;28;969;-65
2023/05/14 09:19:30;;;;;;;;;;;20.30;57.00;;;;;;10282800;28;1088;-65
2023/05/14 09:24:27;;;;;;;;;;;20.30;56.70;;;;;;10283273;28;825;-65
2023/05/14 09:29:23;;;;;;;;;;;20.30;56.70;;;;;;10289327;28;1967;-65
2023/05/14 09:34:18;;;;;;;;;;;20.30;56.60;;;;;;10290513;28;821;-65
2023/05/14 09:39:14;;;;;;;;;;;20.30;56.50;;;;;;10290933;28;868;-68
2023/05/14 09:44:10;;;;;;;;;;;20.30;56.50;;;;;;10290664;28;908;-69
2023/05/14 09:49:06;;;;;;;;;;;20.30;56.50;;;;;;10289871;28;1902;-69
2023/05/14 09:54:01;;;;;;;;;;;20.30;56.40;;;;;;10290721;28;806;-69
2023/05/14 09:58:56;;;;;;;;;;;20.40;56.40;;;;;;10290108;28;877;-69
2023/05/14 10:03:52;;;;;;;;;;;20.40;56.30;;;;;;10289449;28;960;-69
2023/05/14 10:08:47;;;;;;;;;;;20.40;56.20;;;;;;10289689;28;1914;-69
2023/05/14 10:13:43;;;;;;;;;;;20.40;56.50;;;;;;10288919;28;928;-69
2023/05/14 10:18:38;;;;;;;;;;;20.40;56.70;;;;;;10290017;28;864;-69
2023/05/14 10:23:36;;;;;;;;;;;20.40;56.90;;;;;;10289213;28;915;-69
2023/05/14 10:28:31;;;;;;;;;;;20.40;56.80;;;;;;10288373;28;1906;-70
2023/05/14 10:33:27;;;;;;;;;;;20.40;56.60;;;;;;10289101;28;833;-68
2023/05/14 10:38:22;;;;;;;;;;;20.40;56.60;;;;;;10287029;28;1397;-69
2023/05/14 10:43:18;;;;;;;;;;;20.40;56.70;;;;;;10287763;28;1000;-69
2023/05/14 10:48:13;;;;;;;;;;;20.40;57.10;;;;;;10287628;28;1961;-69
2023/05/14 10:53:08;;;;;;;;;;;20.30;56.90;;;;;;10288193;28;779;-69
2023/05/14 10:58:04;;;;;;;;;;;20.30;56.90;;;;;;10287885;28;853;-69
2023/05/14 11:02:59;;;;;;;;;;;20.30;57.10;;;;;;10286996;28;981;-69
2023/05/14 11:07:55;;;;;;;;;;;20.40;57.00;;;;;;10286355;28;1910;-69
2023/05/14 11:12:50;;;;;;;;;;;20.40;56.90;;;;;;10287300;28;856;-70
2023/05/14 11:17:45;;;;;;;;;;;20.40;57.20;;;;;;10287110;28;867;-69
2023/05/14 11:22:41;;;;;;;;;;;20.40;57.20;;;;;;10286854;28;944;-69
2023/05/14 11:27:36;;;;;;;;;;;20.40;57.10;;;;;;10286735;28;1961;-70
2023/05/14 11:32:32;;;;;;;;;;;20.40;57.10;;;;;;10286792;28;773;-69
2023/05/14 11:37:29;;;;;;;;;;;20.40;57.00;;;;;;10285713;28;883;-70
2023/05/14 11:42:24;;;;;;;;;;;20.30;57.00;;;;;;10285564;28;809;-69
2023/05/14 11:47:20;;;;;;;;;;;20.30;57.00;;;;;;10285353;28;1902;-69
2023/05/14 11:52:17;;;;;;;;;;;20.40;57.10;;;;;;10285208;28;806;-69
2023/05/14 11:57:13;;;;;;;;;;;20.40;57.00;;;;;;10284528;28;925;-69
2023/05/14 12:02:08;;;;;;;;;;;20.40;57.00;;;;;;10284969;28;871;-69
2023/05/14 12:07:06;;;;;;;;;;;20.40;56.40;;;;;;10285184;28;1981;-69
2023/05/14 12:12:01;;;;;;;;;;;20.40;56.90;;;;;;10284742;28;881;-69
2023/05/14 12:16:58;;;;;;;;;;;20.50;56.80;;;;;;10285232;28;1044;-69
2023/05/14 12:21:53;;;;;;;;;;;20.50;56.70;;;;;;10284514;28;786;-69
2023/05/14 12:26:49;;;;;;;;;;;20.50;56.70;;;;;;10284911;28;1918;-69
2023/05/14 12:31:45;;;;;;;;;;;20.50;56.80;;;;;;10284870;28;1553;-68
2023/05/14 12:36:40;;;;;;;;;;;20.50;56.70;;;;;;10284148;28;957;-69
2023/05/14 12:41:36;;;;;;;;;;;20.50;56.70;;;;;;10283989;28;854;-69
2023/05/14 12:46:31;;;;;;;;;;;20.50;56.70;;;;;;10283997;28;1906;-69
2023/05/14 12:51:27;;;;;;;;;;;20.50;56.70;;;;;;10284479;28;824;-70
2023/05/14 12:56:26;;;;;;;;;;;20.60;56.80;;;;;;10283676;28;1209;-72
2023/05/14 13:01:21;;;;;;;;;;;20.50;56.70;;;;;;10288088;28;851;-68
2023/05/14 13:06:17;;;;;;;;;;;20.60;56.60;;;;;;10292429;28;1373;-69
2023/05/14 13:11:12;;;;;;;;;;;20.60;56.60;;;;;;10291608;28;1906;-69
2023/05/14 13:16:08;;;;;;;;;;;20.60;56.60;;;;;;10292343;28;855;-69
2023/05/14 13:21:05;;;;;;;;;;;20.60;56.60;;;;;;10291424;28;809;-69
2023/05/14 13:26:00;;;;;;;;;;;20.60;56.60;;;;;;10291044;28;983;-69
2023/05/14 13:30:55;;;;;;;;;;;20.60;56.50;;;;;;10290873;28;1890;-69
2023/05/14 13:35:51;;;;;;;;;;;20.60;56.50;;;;;;10291621;28;906;-69
2023/05/14 13:40:46;;;;;;;;;;;20.70;56.40;;;;;;10291360;28;844;-69
2023/05/14 13:45:42;;;;;;;;;;;20.70;56.40;;;;;;10291035;28;880;-69
2023/05/14 13:50:37;;;;;;;;;;;20.70;56.40;;;;;;10290729;28;1894;-69
2023/05/14 13:55:32;;;;;;;;;;;20.70;56.40;;;;;;10289741;28;826;-69
2023/05/14 14:00:28;;;;;;;;;;;20.70;56.40;;;;;;10290386;28;986;-69
2023/05/14 14:05:27;;;;;;;;;;;20.70;56.50;;;;;;10289947;28;1279;-69
2023/05/14 14:10:22;;;;;;;;;;;20.70;56.40;;;;;;10289587;28;1967;-69
2023/05/14 14:15:18;;;;;;;;;;;20.70;56.40;;;;;;10289136;28;863;-69
2023/05/14 14:20:13;;;;;;;;;;;20.80;56.40;;;;;;10289006;28;862;-69
2023/05/14 14:25:08;;;;;;;;;;;20.80;56.40;;;;;;10289511;28;845;-69
2023/05/14 14:30:04;;;;;;;;;;;20.90;56.60;;;;;;10289206;28;1957;-70
2023/05/14 14:35:00;;;;;;;;;;;20.90;56.60;;;;;;10289136;28;859;-66
2023/05/14 14:39:55;;;;;;;;;;;21.00;56.70;;;;;;10288304;28;1564;-68
2023/05/14 14:44:50;;;;;;;;;;;21.00;56.60;;;;;;10288159;28;909;-69
2023/05/14 14:49:46;;;;;;;;;;;21.00;56.60;;;;;;10288448;28;1902;-69
2023/05/14 14:54:41;;;;;;;;;;;21.10;56.10;;;;;;10288531;28;854;-70
2023/05/14 14:59:36;;;;;;;;;;;21.10;56.50;;;;;;10287583;28;876;-70
2023/05/14 15:04:33;;;;;;;;;;;21.10;56.40;;;;;;10287084;28;1286;-70
2023/05/14 15:09:28;;;;;;;;;;;21.10;56.40;;;;;;10287728;28;1902;-69
2023/05/14 15:14:24;;;;;;;;;;;21.20;56.40;;;;;;10286373;28;865;-69
2023/05/14 15:19:19;;;;;;;;;;;21.20;56.30;;;;;;10286893;28;855;-68
2023/05/14 15:24:15;;;;;;;;;;;21.30;56.20;;;;;;10286185;28;814;-69
2023/05/14 15:29:10;;;;;;;;;;;21.30;56.10;;;;;;10286319;28;1906;-68
2023/05/14 15:34:05;;;;;;;;;;;21.30;56.20;;;;;;10286209;28;856;-69
2023/05/14 15:39:01;;;;;;;;;;;21.20;56.20;;;;;;10286638;28;852;-69
2023/05/14 15:43:57;;;;;;;;;;;21.20;56.50;;;;;;10286067;28;916;-68
2023/05/14 15:48:52;;;;;;;;;;;21.20;56.40;;;;;;10285612;28;1894;-69
2023/05/14 15:53:48;;;;;;;;;;;21.20;56.40;;;;;;10285588;28;755;-68
2023/05/14 15:58:43;;;;;;;;;;;21.20;56.50;;;;;;10284826;28;853;-68
2023/05/14 16:03:38;;;;;;;;;;;21.10;56.40;;;;;;10285278;28;892;-68
2023/05/14 16:08:34;;;;;;;;;;;21.10;56.50;;;;;;10285101;28;1977;-68
2023/05/14 16:13:29;;;;;;;;;;;21.10;56.70;;;;;;10285721;28;792;-68
2023/05/14 16:18:25;;;;;;;;;;;21.10;56.70;;;;;;10284828;28;766;-68
2023/05/14 16:23:20;;;;;;;;;;;21.10;56.70;;;;;;10284666;28;929;-68
2023/05/14 16:28:15;;;;;;;;;;;21.10;56.70;;;;;;10284514;28;1964;-68
2023/05/14 16:33:11;;;;;;;;;;;21.00;56.70;;;;;;10283977;28;876;-68
2023/05/14 16:38:06;;;;;;;;;;;21.00;56.60;;;;;;10291625;28;879;-68
2023/05/14 16:43:02;;;;;;;;;;;21.00;56.70;;;;;;10292811;28;825;-68
2023/05/14 16:47:59;;;;;;;;;;;21.00;56.70;;;;;;10293220;28;1974;-68
2023/05/14 16:52:55;;;;;;;;;;;21.00;56.70;;;;;;10292988;28;890;-68
2023/05/14 16:57:50;;;;;;;;;;;21.00;56.70;;;;;;10292968;28;852;-68
2023/05/14 17:02:48;;;;;;;;;;;21.00;56.70;;;;;;10293396;28;857;-68
2023/05/14 17:07:43;;;;;;;;;;;21.00;56.70;;;;;;10291921;28;1913;-68
2023/05/14 17:12:39;;;;;;;;;;;21.00;56.80;;;;;;10292826;28;854;-68
2023/05/14 17:17:34;;;;;;;;;;;21.00;56.70;;;;;;10292088;28;820;-68
2023/05/14 17:22:30;;;;;;;;;;;21.00;56.70;;;;;;10290805;28;851;-68
2023/05/14 17:27:28;;;;;;;;;;;21.00;56.70;;;;;;10291737;28;1926;-69
2023/05/14 17:32:23;;;;;;;;;;;21.00;56.60;;;;;;10290930;28;973;-68
2023/05/14 17:37:18;;;;;;;;;;;20.90;56.60;;;;;;10291363;28;829;-68
2023/05/14 17:42:14;;;;;;;;;;;20.90;56.60;;;;;;10291307;28;934;-68
2023/05/14 17:47:09;;;;;;;;;;;20.90;56.50;;;;;;10289148;28;1977;-68
2023/05/14 17:52:05;;;;;;;;;;;20.90;56.60;;;;;;10290246;28;758;-68
2023/05/14 17:57:02;;;;;;;;;;;20.90;56.60;;;;;;10290629;28;816;-68
2023/05/14 18:01:58;;;;;;;;;;;20.90;56.50;;;;;;10289837;28;758;-68
2023/05/14 18:06:53;;;;;;;;;;;20.90;56.50;;;;;;10289107;28;1971;-68
2023/05/14 18:11:48;;;;;;;;;;;20.90;56.60;;;;;;10290042;28;781;-68
2023/05/14 18:16:44;;;;;;;;;;;21.00;56.60;;;;;;10289270;28;752;-68
2023/05/14 18:21:39;;;;;;;;;;;20.90;56.50;;;;;;10289732;28;785;-68
2023/05/14 18:26:34;;;;;;;;;;;20.90;56.50;;;;;;10288833;28;1963;-68
2023/05/14 18:31:30;;;;;;;;;;;20.90;56.50;;;;;;10289358;28;852;-68
2023/05/14 18:36:25;;;;;;;;;;;20.90;56.50;;;;;;10288554;28;857;-68
2023/05/14 18:41:21;;;;;;;;;;;20.90;56.50;;;;;;10288249;28;887;-68
2023/05/14 18:46:16;;;;;;;;;;;20.90;56.50;;;;;;10288140;28;909;-68
2023/05/14 18:51:12;;;;;;;;;;;20.90;56.60;;;;;;10288407;28;1906;-68
2023/05/14 18:56:08;;;;;;;;;;;20.90;56.50;;;;;;10287142;28;1218;-68
2023/05/14 19:01:03;;;;;;;;;;;20.90;56.50;;;;;;10288115;28;873;-68
2023/05/14 19:05:59;;;;;;;;;;;20.90;56.50;;;;;;10287689;28;1181;-68
2023/05/14 19:10:54;;;;;;;;;;;20.90;56.50;;;;;;10287661;28;1985;-68
2023/05/14 19:15:50;;;;;;;;;;;20.90;56.40;;;;;;10286932;28;865;-68
2023/05/14 19:20:45;;;;;;;;;;;20.90;56.40;;;;;;10287425;28;862;-68
2023/05/14 19:25:41;;;;;;;;;;;20.90;56.40;;;;;;10285975;28;834;-68
2023/05/14 19:30:36;;;;;;;;;;;20.90;56.40;;;;;;10286452;28;1906;-68
2023/05/14 19:35:31;;;;;;;;;;;20.90;56.40;;;;;;10286715;28;867;-68
2023/05/14 19:40:27;;;;;;;;;;;20.90;56.40;;;;;;10286600;28;786;-68
2023/05/14 19:45:22;;;;;;;;;;;20.90;56.30;;;;;;10285900;28;870;-68
2023/05/14 19:50:18;;;;;;;;;;;20.90;56.40;;;;;;10285835;28;1913;-68
2023/05/14 19:55:13;;;;;;;;;;;20.90;56.40;;;;;;10285586;28;746;-67
2023/05/14 20:00:09;;;;;;;;;;;20.90;56.30;;;;;;10286591;28;917;-72
2023/05/14 20:05:05;;;;;;;;;;;20.90;56.40;;;;;;10285652;28;1312;-72
2023/05/14 20:10:00;;;;;;;;;;;20.90;56.20;;;;;;10285025;28;1910;-74
2023/05/14 20:14:56;;;;;;;;;;;20.90;56.20;;;;;;10285168;28;876;-74
2023/05/14 20:19:51;;;;;;;;;;;20.90;56.20;;;;;;10285446;28;787;-74
2023/05/14 20:24:47;;;;;;;;;;;20.90;56.10;;;;;;10284874;28;979;-74
2023/05/14 20:29:42;;;;;;;;;;;20.90;56.10;;;;;;10285366;28;1959;-74
2023/05/14 20:34:37;;;;;;;;;;;20.90;56.10;;;;;;10284536;28;863;-74
2023/05/14 20:39:33;;;;;;;;;;;20.90;56.10;;;;;;10285270;28;838;-74
2023/05/14 20:44:28;;;;;;;;;;;20.80;56.00;;;;;;10283769;28;924;-74
2023/05/14 20:49:23;;;;;;;;;;;20.90;56.10;;;;;;10284823;28;1973;-74
2023/05/14 20:54:19;;;;;;;;;;;20.90;56.10;;;;;;10283587;28;775;-74
2023/05/14 20:59:14;;;;;;;;;;;20.80;56.00;;;;;;10284987;28;872;-74
2023/05/14 21:04:10;;;;;;;;;;;20.90;56.00;;;;;;10284572;28;802;-74
2023/05/14 21:09:05;;;;;;;;;;;20.90;56.00;;;;;;10283102;28;1979;-74
2023/05/14 21:14:00;;;;;;;;;;;20.90;56.00;;;;;;10283279;28;1020;-73
2023/05/14 21:18:56;;;;;;;;;;;20.90;56.00;;;;;;10283780;28;785;-74
2023/05/14 21:23:51;;;;;;;;;;;20.90;55.90;;;;;;10289338;28;793;-74
2023/05/14 21:28:46;;;;;;;;;;;20.90;55.90;;;;;;10290518;28;1906;-73
2023/05/14 21:33:42;;;;;;;;;;;20.90;55.90;;;;;;10291738;28;835;-74
2023/05/14 21:38:37;;;;;;;;;;;20.90;55.90;;;;;;10290199;28;1066;-74
2023/05/14 21:43:32;;;;;;;;;;;20.90;55.90;;;;;;10290605;28;766;-74
2023/05/14 21:48:28;;;;;;;;;;;20.90;55.90;;;;;;10290389;28;1964;-74
2023/05/14 21:53:23;;;;;;;;;;;20.90;55.90;;;;;;10290164;28;750;-74
2023/05/14 21:58:19;;;;;;;;;;;20.90;55.90;;;;;;10290619;28;801;-74
2023/05/14 22:03:14;;;;;;;;;;;20.90;55.90;;;;;;10290509;28;908;-74
2023/05/14 22:08:09;;;;;;;;;;;20.90;55.80;;;;;;10288758;28;1977;-74
2023/05/14 22:13:05;;;;;;;;;;;20.90;55.80;;;;;;10289492;28;936;-74
2023/05/14 22:18:01;;;;;;;;;;;20.90;55.80;;;;;;10289259;28;900;-74
2023/05/14 22:22:57;;;;;;;;;;;20.90;55.80;;;;;;10289053;28;920;-74
2023/05/14 22:27:52;;;;;;;;;;;20.90;55.80;;;;;;10289281;28;1898;-74
2023/05/14 22:32:47;;;;;;;;;;;20.90;55.70;;;;;;10288173;28;821;-74
2023/05/14 22:37:43;;;;;;;;;;;20.90;55.70;;;;;;10288881;28;892;-74
2023/05/14 22:42:38;;;;;;;;;;;20.90;55.80;;;;;;10289225;28;826;-74
2023/05/14 22:47:34;;;;;;;;;;;20.90;55.70;;;;;;10288950;28;1961;-74
2023/05/14 22:52:29;;;;;;;;;;;20.90;55.70;;;;;;10288483;28;867;-74
2023/05/14 22:57:25;;;;;;;;;;;20.90;55.70;;;;;;10287664;28;932;-73
2023/05/14 23:02:20;;;;;;;;;;;20.90;55.70;;;;;;10287597;28;848;-74
2023/05/14 23:07:15;;;;;;;;;;;20.90;55.70;;;;;;10287059;28;1910;-74
2023/05/14 23:12:11;;;;;;;;;;;20.80;55.60;;;;;;10287166;28;785;-74
2023/05/14 23:17:06;;;;;;;;;;;20.90;55.60;;;;;;10287019;28;844;-74
2023/05/14 23:22:02;;;;;;;;;;;20.90;55.60;;;;;;10286780;28;828;-74
2023/05/14 23:26:57;;;;;;;;;;;20.90;55.60;;;;;;10286505;28;1902;-74
2023/05/14 23:31:52;;;;;;;;;;;20.90;55.60;;;;;;10286988;28;837;-74
2023/05/14 23:36:48;;;;;;;;;;;20.90;55.60;;;;;;10286233;28;949;-74
2023/05/14 23:41:43;;;;;;;;;;;20.80;55.50;;;;;;10286079;28;920;-74
2023/05/14 23:46:39;;;;;;;;;;;20.80;55.50;;;;;;10285695;28;824;-73
2023/05/14 23:51:35;;;;;;;;;;;20.80;55.50;;;;;;10285654;28;1902;-73
2023/05/14 23:56:31;;;;;;;;;;;20.80;55.50;;;;;;10286268;28;844;-74
